Sparta, WI (54656)

8:12 AM CST on February 09, 2016 (GMT -0600)
Sparta-Fort McCoy | | Change Station
CLOSE
Current Station
Airport
Location: Sparta,
Elevation: 837 ft
Nearby Weather Stations

Elev 837 ft 43.96 °N, 90.74 °W | Updated 17 minutes ago

Snow
Snow
8 °F
Feels Like -10 °F
N
15
Wind Variable Wind from NW

Today
High -- | Low -- °F
--% Chance of Precip.
Yesterday
High -- | Low -- °F
Precip. -- in
Pressure 29.97 in
Visibility 1.5 miles
Clouds Overcast 1300 ft
Windchill -10 °F
Dew Point 2 °F
Humidity 79%
Rainfall 0.00 in
Snow Depth Not available.
7:11 AM 5:24 PM
New Moon, 1% visible
METAR KCMY 091355Z AUTO 31013KT 1 1/2SM -SN OVC013 M13/M16 A2997 RMK AO2 VIS 1/2V2 T11351165
Pressure 29.97 in
Visibility 1.5 miles
Clouds Overcast 1300 ft
Windchill -10 °F
Dew Point 2 °F
Humidity 79%
Rainfall 0.00 in
Snow Depth Not available.
7:11 AM 5:24 PM
New Moon, 1% visible
METAR KCMY 091355Z AUTO 31013KT 1 1/2SM -SN OVC013 M13/M16 A2997 RMK AO2 VIS 1/2V2 T11351165

10-Day Weather Forecast

Almanac

Astronomy

Feb. 09, 2016 Rise Set
Actual Time
Civil Twilight
Nautical Twilight
Astronomical Twilight
Moon
Length of Visible Light
Length of Day
Tomorrow will be .
, % of the Moon is Illuminated

Today's Extremes

State Highs State Lows

Community

WunderPhotos

Upload Photos

1,891,598 photos uploaded!

WunderBlog® & News

Nearby

Air Quality

  Air Quality AQ Index Pollutant
Not available.

Snow Depth

Station Depth Elevation

Earthquake Activity

City Distance Mag. Time & Date
Minimum magnitude displayed is 2.5.

Coastal Water Temperatures

Place Temperature

Stations

Nearby Weather Stations

Station Location Temp. Windchill Dew Point Humidity Wind Precip. Elev Updated Type
                   

Watches & Warnings

There are currently no watches in effect.